Las Vegas Municipal Airport
KLVS : now visible

Airfield :











YOU CAN JOIN US ON...

 
LOGIN :

Register | Disclaimer

   EN    FR    IT 

 









Legend :    VFR   Marginal VFR   IFR   Intensive IFR   Very Intensive IFR
Visi :
Ceiling :
>= 8 km
>= 3000ft
5 to 8 km
1000 to 3000 ft
1500m to 5 km
500 to 1000 ft
800 to 1500m
200 to 500 ft
< 800m
< 200 ft
Symbols :   Thunderstorms  Fog  Heavy snow  Heavy precipitations  Wind > 20 kt






- Airport Elevation : 6877 ft


KLVS - Las Vegas Municipal

CURRENT METAR :
  • 031653Z AUTO 21006KT 10SM CLR 27/08 A3031 RMK AO2 SLP142 T02720083

EXPIRED METARs :
  • 031553Z AUTO 23006KT 10SM CLR 25/10 A3032 RMK AO2 SLP149 T02500100
  • 031453Z AUTO 19007KT 10SM CLR 23/09 A3033 RMK AO2 SLP153 T02280094 51012

TAF KLVS
Valid from the 03 at 12:00 until the 04 at 12:00 UTC


031120Z 0312/0412 VRB06KT P6SM SCT100
FM031800 18011KT P6SM VCSH SCT090 BKN100
TEMPO 0319/0322 VRB20G33KT 5SM -TSRA OVC070CB
FM032300 04011KT P6SM VCSH SCT060 BKN100
FM040500 02004KT P6SM SCT020 BKN080
KZAB FIR / North America



MET'MAP, your aeronautical weather chart ! - Copyright ORBIFLY December 2007 - Disclaimer

ORBIFLY MET'MAP TEAM :

Programming & Development : Alexandra Zaïnal
Concept & original design : Baudouin d'Aumeries
Assistance for programming : Marc-Olivier Méhu
Technical & hardware support : Manuel Goepfert

Contact : metmap@orbifly.com




SOURCES & CREDITS :

   NOAA       Earth
Advisory